createdAt,value
2018-03-01T00:02:11.265Z,30.40
2018-03-01T00:04:38.433Z,29.90
2018-03-01T00:07:06.374Z,30.80
2018-03-01T00:09:33.542Z,30.20
2018-03-01T00:12:00.706Z,30.10
2018-03-01T00:14:28.638Z,30.00
2018-03-01T00:16:55.843Z,30.00
2018-03-01T00:19:23.776Z,29.80
2018-03-01T00:21:50.946Z,29.90
2018-03-01T00:24:18.878Z,30.00
2018-03-01T00:26:46.126Z,30.10
2018-03-01T00:29:13.334Z,30.10
2018-03-01T00:31:41.285Z,30.10
2018-03-01T00:34:08.495Z,30.10
2018-03-01T00:36:35.750Z,29.90
2018-03-01T00:39:03.785Z,30.20
2018-03-01T00:41:31.818Z,30.20
2018-03-01T00:43:59.022Z,30.20
2018-03-01T00:46:26.222Z,30.00
2018-03-01T00:48:53.429Z,30.10
2018-03-01T00:51:21.423Z,30.20
2018-03-01T00:53:48.635Z,29.80
2018-03-01T00:56:16.566Z,29.70
2018-03-01T00:58:43.900Z,29.70
2018-03-01T01:01:11.072Z,30.00
2018-03-01T01:03:38.307Z,29.40
2018-03-01T01:06:05.470Z,30.00
2018-03-01T01:08:32.714Z,29.90
2018-03-01T01:10:59.962Z,29.70
2018-03-01T01:13:27.135Z,30.10
2018-03-01T01:15:54.341Z,30.50
2018-03-01T01:18:21.512Z,29.60
2018-03-01T01:20:48.770Z,29.70
2018-03-01T01:23:16.026Z,30.00
2018-03-01T01:25:43.231Z,30.00
2018-03-01T01:28:11.164Z,30.00
2018-03-01T01:30:38.367Z,29.90
2018-03-01T01:33:05.534Z,29.70
2018-03-01T01:35:32.747Z,29.90
2018-03-01T01:38:00.725Z,30.20
2018-03-01T01:40:28.655Z,30.00
2018-03-01T01:42:55.857Z,30.00
2018-03-01T01:45:23.826Z,30.00
2018-03-01T01:47:51.758Z,29.60
2018-03-01T01:50:18.929Z,29.60
2018-03-01T01:52:46.865Z,30.70
2018-03-01T01:55:14.070Z,30.10
2018-03-01T01:57:42.076Z,30.00
2018-03-01T02:00:09.366Z,30.00
2018-03-01T02:02:36.570Z,29.70
2018-03-01T02:05:03.743Z,29.60
2018-03-01T02:07:30.990Z,29.70
2018-03-01T02:09:58.158Z,29.90
2018-03-01T02:12:25.322Z,30.00
2018-03-01T02:14:52.573Z,29.60
2018-03-01T02:17:19.737Z,29.80
2018-03-01T02:19:46.941Z,30.00
2018-03-01T02:22:14.303Z,29.90
2018-03-01T02:24:41.471Z,29.80
2018-03-01T02:27:09.267Z,30.10
2018-03-01T02:29:37.292Z,29.60
2018-03-01T02:32:04.461Z,29.60
2018-03-01T02:34:31.626Z,30.00
2018-03-01T02:36:58.837Z,29.70
2018-03-01T02:39:25.998Z,29.80
2018-03-01T02:41:53.247Z,29.50
2018-03-01T02:44:20.415Z,29.60
2018-03-01T02:46:47.578Z,29.40
2018-03-01T02:49:14.746Z,29.50
2018-03-01T02:51:42.677Z,29.50
2018-03-01T02:54:09.837Z,29.80
2018-03-01T02:56:37.183Z,30.10
2018-03-01T02:59:04.345Z,29.70
2018-03-01T03:01:32.290Z,29.90
2018-03-01T03:03:59.450Z,29.90
2018-03-01T03:06:26.616Z,30.10
2018-03-01T03:08:54.774Z,30.00
2018-03-01T03:11:21.941Z,29.70
2018-03-01T03:13:49.108Z,29.90
2018-03-01T03:16:16.335Z,29.70
2018-03-01T03:18:44.376Z,30.30
2018-03-01T03:21:12.374Z,29.90
2018-03-01T03:23:39.573Z,29.90
2018-03-01T03:26:07.608Z,29.70
2018-03-01T03:28:34.773Z,29.90
2018-03-01T03:31:01.940Z,30.00
2018-03-01T03:33:29.141Z,29.90
2018-03-01T03:35:57.238Z,29.70
2018-03-01T03:38:25.336Z,30.00
2018-03-01T03:40:54.957Z,30.00
2018-03-01T03:43:23.089Z,30.00
2018-03-01T03:45:51.166Z,30.10
2018-03-01T03:48:18.329Z,30.20
2018-03-01T03:50:45.495Z,29.90
2018-03-01T03:53:13.553Z,29.80
2018-03-01T03:55:41.653Z,30.00
2018-03-01T03:58:09.703Z,30.00
2018-03-01T04:00:36.906Z,29.80
2018-03-01T04:03:04.065Z,29.80
2018-03-01T04:05:31.259Z,29.90
2018-03-01T04:07:58.425Z,29.80
2018-03-01T04:10:25.585Z,29.80
2018-03-01T04:12:53.509Z,29.70
2018-03-01T04:15:20.664Z,29.70
2018-03-01T04:17:48.649Z,30.00
2018-03-01T04:20:15.818Z,29.80
2018-03-01T04:22:43.032Z,29.70
2018-03-01T04:25:10.200Z,29.80
2018-03-01T04:27:37.362Z,29.90
2018-03-01T04:30:05.418Z,29.70
2018-03-01T04:32:32.588Z,29.70
2018-03-01T04:34:59.754Z,29.50
2018-03-01T04:37:27.858Z,29.50
2018-03-01T04:39:55.021Z,29.50
2018-03-01T04:42:22.222Z,29.20
2018-03-01T04:44:49.391Z,29.70
2018-03-01T04:47:17.355Z,29.60
2018-03-01T04:49:46.071Z,29.60
2018-03-01T04:52:13.229Z,29.50
2018-03-01T04:54:40.398Z,29.30
2018-03-01T04:57:07.565Z,29.20
2018-03-01T04:59:34.770Z,29.10
2018-03-01T05:02:02.874Z,29.20
2018-03-01T05:04:30.079Z,29.40
2018-03-01T05:06:58.966Z,29.20
2018-03-01T05:09:26.947Z,29.00
2018-03-01T05:11:54.877Z,29.40
2018-03-01T05:14:22.116Z,29.40
2018-03-01T05:16:49.365Z,29.30
2018-03-01T05:19:16.533Z,29.20
2018-03-01T05:21:43.738Z,29.30
2018-03-01T05:24:11.021Z,29.40
2018-03-01T05:26:39.230Z,29.00
2018-03-01T05:29:06.553Z,29.30
2018-03-01T05:31:33.717Z,29.20
2018-03-01T05:34:00.956Z,29.10
2018-03-01T05:36:28.902Z,29.20
2018-03-01T05:38:56.974Z,29.00
2018-03-01T05:41:25.073Z,28.80
2018-03-01T05:43:52.234Z,28.80
2018-03-01T05:46:19.436Z,28.80
2018-03-01T05:48:48.134Z,28.90
2018-03-01T05:51:15.332Z,28.90
2018-03-01T05:53:42.604Z,28.80
2018-03-01T05:56:10.650Z,28.90
2018-03-01T05:58:38.508Z,28.70
2018-03-01T06:01:05.712Z,29.10
2018-03-01T06:03:33.651Z,29.00
2018-03-01T06:06:00.890Z,29.00
2018-03-01T06:08:28.054Z,29.20
2018-03-01T06:10:55.287Z,28.90
2018-03-01T06:13:22.543Z,29.40
2018-03-01T06:15:50.614Z,29.10
2018-03-01T06:18:18.690Z,29.00
2018-03-01T06:20:45.861Z,28.90
2018-03-01T06:23:14.736Z,29.00
2018-03-01T06:25:41.905Z,29.00
2018-03-01T06:28:09.106Z,29.00
2018-03-01T06:30:36.273Z,29.10
2018-03-01T06:33:03.442Z,28.90
2018-03-01T06:35:30.726Z,29.10
2018-03-01T06:37:57.885Z,29.00
2018-03-01T06:40:25.051Z,29.10
2018-03-01T06:42:53.063Z,28.80
2018-03-01T06:45:20.250Z,28.80
2018-03-01T06:47:48.297Z,29.00
2018-03-01T06:50:15.542Z,28.80
2018-03-01T06:52:42.749Z,28.80
2018-03-01T06:55:10.682Z,28.90
2018-03-01T06:57:37.909Z,28.80
2018-03-01T07:00:05.859Z,29.00
2018-03-01T07:02:34.061Z,28.90
2018-03-01T07:05:02.136Z,28.90
2018-03-01T07:07:29.317Z,29.20
2018-03-01T07:09:58.995Z,28.70
2018-03-01T07:12:26.194Z,28.70
2018-03-01T07:14:53.358Z,28.80
2018-03-01T07:17:22.062Z,28.80
2018-03-01T07:19:49.978Z,28.70
2018-03-01T07:22:17.946Z,28.60
2018-03-01T07:24:45.178Z,28.50
2018-03-01T07:27:13.252Z,28.50
2018-03-01T07:29:41.324Z,28.20
2018-03-01T07:32:08.499Z,28.20
2018-03-01T07:34:36.462Z,27.70
2018-03-01T07:37:03.635Z,27.70
2018-03-01T07:39:30.804Z,28.10
2018-03-01T07:41:59.542Z,28.20
2018-03-01T07:44:27.710Z,28.20
2018-03-01T07:46:54.873Z,28.00
2018-03-01T07:49:22.118Z,28.30
2018-03-01T07:51:49.286Z,28.30
2018-03-01T07:54:17.570Z,28.40
2018-03-01T07:56:46.303Z,28.40
2018-03-01T07:59:13.484Z,28.40
2018-03-01T08:01:40.682Z,28.40
2018-03-01T08:04:08.622Z,28.10
2018-03-01T08:06:36.678Z,28.00
2018-03-01T08:09:04.854Z,28.40
2018-03-01T08:11:32.102Z,28.60
2018-03-01T08:14:00.076Z,28.30
2018-03-01T08:16:28.062Z,28.30
2018-03-01T08:18:55.962Z,28.40
2018-03-01T08:21:24.678Z,28.50
2018-03-01T08:23:52.669Z,28.40
2018-03-01T08:26:20.662Z,28.20
2018-03-01T08:28:47.853Z,28.10
2018-03-01T08:31:16.590Z,28.30
2018-03-01T08:33:43.803Z,28.30
2018-03-01T08:36:11.785Z,28.20
2018-03-01T08:38:39.102Z,28.10
2018-03-01T08:41:06.416Z,27.90
2018-03-01T08:43:34.562Z,27.60
2018-03-01T08:46:02.671Z,27.90
2018-03-01T08:48:30.787Z,27.80
2018-03-01T08:50:58.730Z,27.70
2018-03-01T08:53:25.962Z,27.70
2018-03-01T08:55:53.125Z,27.70
2018-03-01T08:58:20.335Z,27.40
2018-03-01T09:00:47.497Z,27.80
2018-03-01T09:03:15.219Z,28.30
2018-03-01T09:05:42.434Z,27.80
2018-03-01T09:08:09.746Z,28.20
2018-03-01T09:10:38.450Z,27.90
2018-03-01T09:13:05.650Z,27.90
2018-03-01T09:15:32.845Z,27.80
2018-03-01T09:18:00.814Z,27.70
2018-03-01T09:20:29.538Z,27.80
2018-03-01T09:22:56.737Z,27.90
2018-03-01T09:25:24.669Z,27.90
2018-03-01T09:27:51.869Z,27.70
2018-03-01T09:30:20.621Z,28.00
2018-03-01T09:32:48.989Z,27.70
2018-03-01T09:35:16.981Z,27.70
2018-03-01T09:37:44.149Z,28.00
2018-03-01T09:40:12.172Z,27.70
2018-03-01T09:42:39.361Z,27.70
2018-03-01T09:45:07.289Z,28.00
2018-03-01T09:47:34.450Z,28.00
2018-03-01T09:50:01.618Z,27.90
2018-03-01T09:52:28.782Z,27.80
2018-03-01T09:54:56.855Z,27.70
2018-03-01T09:57:24.021Z,27.60
2018-03-01T09:59:52.767Z,27.70
2018-03-01T10:02:20.705Z,27.60
2018-03-01T10:04:47.910Z,27.80
2018-03-01T10:07:15.109Z,27.60
2018-03-01T10:09:43.209Z,27.80
2018-03-01T10:12:10.384Z,27.70
2018-03-01T10:14:37.615Z,27.20
2018-03-01T10:17:04.781Z,27.60
2018-03-01T10:19:31.946Z,27.50
2018-03-01T10:21:59.463Z,27.40
2018-03-01T10:24:26.624Z,27.80
2018-03-01T10:26:54.803Z,27.70
2018-03-01T10:29:21.975Z,27.60
2018-03-01T10:31:49.146Z,27.30
2018-03-01T10:34:17.094Z,28.20
2018-03-01T10:36:44.258Z,27.40
2018-03-01T10:39:13.098Z,27.30
2018-03-01T10:41:40.894Z,27.20
2018-03-01T10:44:08.854Z,27.30
2018-03-01T10:46:36.013Z,27.90
2018-03-01T10:49:03.210Z,27.40
2018-03-01T10:51:31.221Z,27.70
2018-03-01T10:53:58.531Z,27.60
2018-03-01T10:56:26.524Z,27.30
2018-03-01T10:58:53.698Z,27.50
2018-03-01T11:01:21.647Z,27.50
2018-03-01T11:03:48.830Z,27.00
2018-03-01T11:06:17.248Z,27.30
2018-03-01T11:08:45.178Z,27.40
2018-03-01T11:11:12.415Z,27.30
2018-03-01T11:13:39.574Z,27.50
2018-03-01T11:16:06.935Z,27.50
2018-03-01T11:18:34.098Z,27.40
2018-03-01T11:21:01.263Z,27.40
2018-03-01T11:23:29.308Z,27.60
2018-03-01T11:25:56.477Z,27.70
2018-03-01T11:28:23.690Z,27.70
2018-03-01T11:30:50.861Z,27.80
2018-03-01T11:33:18.026Z,27.50
2018-03-01T11:35:45.958Z,27.80
2018-03-01T11:38:13.127Z,28.40
2018-03-01T11:40:40.293Z,27.10
2018-03-01T11:43:07.462Z,27.30
2018-03-01T11:45:34.663Z,27.00
2018-03-01T11:48:01.826Z,27.60
2018-03-01T11:50:29.030Z,27.50
2018-03-01T11:52:56.237Z,27.10
2018-03-01T11:55:24.219Z,27.20
2018-03-01T11:57:51.386Z,26.90
2018-03-01T12:00:18.586Z,26.30
2018-03-01T12:02:46.515Z,26.80
2018-03-01T12:05:14.525Z,26.70
2018-03-01T12:07:42.639Z,26.60
2018-03-01T12:10:10.782Z,27.10
2018-03-01T12:12:37.945Z,26.80
2018-03-01T12:15:05.114Z,27.00
2018-03-01T12:17:33.094Z,27.00
2018-03-01T12:20:00.793Z,27.30
2018-03-01T12:22:29.618Z,28.10
2018-03-01T12:24:57.700Z,27.60
2018-03-01T12:27:24.869Z,27.60
2018-03-01T12:29:52.817Z,27.60
2018-03-01T12:32:20.767Z,27.40
2018-03-01T12:34:49.634Z,27.40
2018-03-01T12:37:17.765Z,27.30
2018-03-01T12:39:44.938Z,27.20
2018-03-01T12:42:13.023Z,27.30
2018-03-01T12:44:40.195Z,27.30
2018-03-01T12:47:09.038Z,27.50
2018-03-01T12:49:36.202Z,27.40
2018-03-01T12:52:04.345Z,27.50
2018-03-01T12:54:31.518Z,27.30
2018-03-01T12:56:59.535Z,28.10
2018-03-01T12:59:27.470Z,27.90
2018-03-01T13:01:55.585Z,27.80
2018-03-01T13:04:36.048Z,27.60
2018-03-01T13:07:05.014Z,27.60
2018-03-01T13:09:32.213Z,27.50
2018-03-01T13:11:59.386Z,27.80
2018-03-01T13:14:27.495Z,27.60
2018-03-01T13:16:54.665Z,27.80
2018-03-01T13:19:22.646Z,28.00
2018-03-01T13:21:50.581Z,28.00
2018-03-01T13:24:18.527Z,28.00
2018-03-01T13:26:45.698Z,27.80
2018-03-01T13:29:12.866Z,27.70
2018-03-01T13:31:44.450Z,27.50
2018-03-01T13:34:12.514Z,27.50
2018-03-01T13:36:40.494Z,27.30
2018-03-01T13:39:08.447Z,27.20
2018-03-01T13:41:36.376Z,27.00
2018-03-01T13:44:03.554Z,26.90
2018-03-01T13:46:34.531Z,27.00
2018-03-01T13:49:01.707Z,27.10
2018-03-01T13:51:28.874Z,27.20
2018-03-01T13:53:56.042Z,27.50
2018-03-01T13:56:24.010Z,27.20
2018-03-01T13:58:51.174Z,27.20
2018-03-01T14:01:19.115Z,27.80
2018-03-01T14:03:46.283Z,27.80
2018-03-01T14:06:34.205Z,27.40
2018-03-01T14:09:01.657Z,27.80
2018-03-01T14:11:28.826Z,27.60
2018-03-01T14:13:56.042Z,27.50
2018-03-01T14:16:23.205Z,28.20
2018-03-01T14:18:55.999Z,27.90
2018-03-01T14:21:23.166Z,28.00
2018-03-01T14:23:52.701Z,27.90
2018-03-01T14:26:21.174Z,28.10
2018-03-01T14:28:59.914Z,28.00
2018-03-01T14:31:27.254Z,27.90
2018-03-01T14:33:55.186Z,28.00
2018-03-01T14:36:23.307Z,27.90
2018-03-01T14:38:52.141Z,28.40
2018-03-01T14:41:19.549Z,28.40
2018-03-01T14:43:47.783Z,27.90
2018-03-01T14:46:15.769Z,27.90
2018-03-01T14:48:43.842Z,28.20
2018-03-01T14:51:11.930Z,27.90
2018-03-01T14:53:40.809Z,28.30
2018-03-01T14:56:08.913Z,27.90
2018-03-01T14:58:36.895Z,28.10
2018-03-01T15:01:04.974Z,28.10
2018-03-01T15:03:33.078Z,28.20
2018-03-01T15:06:00.242Z,28.40
2018-03-01T15:08:28.234Z,28.40
2018-03-01T15:10:57.434Z,28.60
2018-03-01T15:13:26.272Z,28.10
2018-03-01T15:15:53.432Z,28.00
2018-03-01T15:18:20.599Z,28.20
2018-03-01T15:20:48.530Z,28.10
2018-03-01T15:23:15.705Z,28.10
2018-03-01T15:25:42.879Z,28.00
2018-03-01T15:28:11.070Z,27.90
2018-03-01T15:30:38.238Z,27.90
2018-03-01T15:33:06.170Z,27.80
2018-03-01T15:35:33.333Z,27.80
2018-03-01T15:38:00.499Z,28.20
2018-03-01T15:40:28.437Z,28.80
2018-03-01T15:42:55.608Z,28.30
2018-03-01T15:45:22.774Z,28.10
2018-03-01T15:47:50.702Z,28.30
2018-03-01T15:50:18.676Z,28.30
2018-03-01T15:52:46.731Z,28.00
2018-03-01T15:55:13.930Z,28.00
2018-03-01T15:57:41.870Z,28.60
2018-03-01T16:00:10.002Z,28.30
2018-03-01T16:02:38.086Z,28.00
2018-03-01T16:05:06.182Z,28.30
2018-03-01T16:07:33.369Z,28.20
2018-03-01T16:10:01.144Z,28.30
2018-03-01T16:12:29.078Z,28.40
2018-03-01T16:14:56.315Z,28.30
2018-03-01T16:17:24.251Z,28.40
2018-03-01T16:19:52.185Z,28.30
2018-03-01T16:22:20.310Z,28.30
2018-03-01T16:24:47.478Z,28.40
2018-03-01T16:27:15.515Z,28.50
2018-03-01T16:29:43.524Z,28.50
2018-03-01T16:32:11.594Z,28.40
2018-03-01T16:34:38.794Z,28.50
2018-03-01T16:37:07.518Z,28.70
2018-03-01T16:39:34.687Z,28.70
2018-03-01T16:42:01.855Z,28.60
2018-03-01T16:44:29.018Z,28.60
2018-03-01T16:46:56.174Z,28.70
2018-03-01T16:49:23.339Z,28.50
2018-03-01T16:51:50.508Z,28.70
2018-03-01T16:54:19.235Z,28.70
2018-03-01T16:56:46.399Z,28.70
2018-03-01T16:59:14.463Z,28.70
2018-03-01T17:01:43.079Z,29.10
2018-03-01T17:04:10.246Z,28.80
2018-03-01T17:06:38.214Z,28.60
2018-03-01T17:09:07.057Z,28.60
2018-03-01T17:11:34.265Z,28.60
2018-03-01T17:14:03.142Z,28.60
2018-03-01T17:16:32.102Z,28.70
2018-03-01T17:19:00.068Z,28.70
2018-03-01T17:21:27.234Z,28.80
2018-03-01T17:23:54.408Z,28.80
2018-03-01T17:26:22.343Z,29.00
2018-03-01T17:28:50.538Z,29.00
2018-03-01T17:31:18.495Z,28.70
2018-03-01T17:33:46.625Z,28.80
2018-03-01T17:36:14.827Z,28.90
2018-03-01T17:38:42.930Z,28.80
2018-03-01T17:41:10.886Z,29.00
2018-03-01T17:43:39.147Z,28.90
2018-03-01T17:46:07.090Z,28.90
2018-03-01T17:48:34.290Z,29.00
2018-03-01T17:51:02.278Z,28.70
2018-03-01T17:53:30.368Z,29.00
2018-03-01T17:55:59.230Z,28.90
2018-03-01T17:58:26.486Z,28.80
2018-03-01T18:00:54.594Z,29.00
2018-03-01T18:03:22.518Z,28.70
2018-03-01T18:05:49.749Z,28.70
2018-03-01T18:08:16.905Z,28.90
2018-03-01T18:10:44.881Z,29.10
2018-03-01T18:13:12.813Z,28.80
2018-03-01T18:15:39.974Z,29.00
2018-03-01T18:18:07.146Z,29.10
2018-03-01T18:20:34.314Z,28.90
2018-03-01T18:23:01.518Z,29.10
2018-03-01T18:25:28.806Z,29.30
2018-03-01T18:27:57.534Z,29.30
2018-03-01T18:30:24.739Z,29.00
2018-03-01T18:32:51.953Z,29.10
2018-03-01T18:35:19.882Z,29.00
2018-03-01T18:37:47.973Z,29.00
2018-03-01T18:40:16.073Z,29.20
2018-03-01T18:42:44.192Z,28.90
2018-03-01T18:45:12.298Z,29.30
2018-03-01T18:47:39.580Z,28.90
2018-03-01T18:50:07.540Z,28.90
2018-03-01T18:52:35.538Z,28.80
2018-03-01T18:55:03.494Z,28.80
2018-03-01T18:57:31.470Z,29.10
2018-03-01T18:59:59.521Z,28.90
2018-03-01T19:02:27.531Z,28.60
2018-03-01T19:04:54.789Z,28.60
2018-03-01T19:07:22.036Z,28.40
2018-03-01T19:09:49.193Z,28.30
2018-03-01T19:12:16.390Z,28.70
2018-03-01T19:14:44.418Z,28.70
2018-03-01T19:17:11.668Z,29.30
2018-03-01T19:19:38.834Z,28.50
2018-03-01T19:22:06.074Z,28.90
2018-03-01T19:24:34.181Z,28.70
2018-03-01T19:27:01.394Z,29.00
2018-03-01T19:29:28.559Z,28.80
2018-03-01T19:31:55.721Z,28.80
2018-03-01T19:34:22.930Z,28.80
2018-03-01T19:36:51.118Z,28.60
2018-03-01T19:39:18.380Z,28.90
2018-03-01T19:41:45.550Z,28.50
2018-03-01T19:44:12.782Z,28.60
2018-03-01T19:46:40.144Z,28.80
2018-03-01T19:49:07.398Z,28.60
2018-03-01T19:51:34.561Z,28.90
2018-03-01T19:54:01.806Z,28.90
2018-03-01T19:56:29.050Z,28.90
2018-03-01T19:58:56.308Z,29.00
2018-03-01T20:01:23.472Z,29.00
2018-03-01T20:03:50.634Z,29.30
2018-03-01T20:06:17.863Z,28.90
2018-03-01T20:08:45.033Z,29.00
2018-03-01T20:11:12.562Z,28.90
2018-03-01T20:13:39.829Z,29.10
2018-03-01T20:16:07.766Z,29.10
2018-03-01T20:18:35.769Z,29.20
2018-03-01T20:21:02.936Z,29.20
2018-03-01T20:23:30.147Z,29.20
2018-03-01T20:25:57.324Z,29.10
2018-03-01T20:28:25.299Z,29.20
2018-03-01T20:30:52.468Z,28.80
2018-03-01T20:33:19.635Z,28.90
2018-03-01T20:35:46.997Z,28.90
2018-03-01T20:38:15.019Z,29.30
2018-03-01T20:40:42.226Z,28.90
2018-03-01T20:43:10.249Z,28.70
2018-03-01T20:45:40.385Z,28.70
2018-03-01T20:48:07.889Z,28.60
2018-03-01T20:50:36.818Z,28.60
2018-03-01T20:53:08.109Z,28.60
2018-03-01T20:55:35.278Z,28.80
2018-03-01T20:58:04.018Z,29.20
2018-03-01T21:00:31.263Z,29.20
2018-03-01T21:02:59.362Z,28.80
2018-03-01T21:05:27.438Z,28.70
2018-03-01T21:07:55.537Z,29.00
2018-03-01T21:10:24.442Z,28.80
2018-03-01T21:12:52.402Z,28.80
2018-03-01T21:15:21.358Z,28.80
2018-03-01T21:17:48.591Z,28.70
2018-03-01T21:20:15.844Z,28.90
2018-03-01T21:22:43.918Z,28.80
2018-03-01T21:25:11.171Z,28.60
2018-03-01T21:27:39.238Z,29.20
2018-03-01T21:30:06.495Z,29.10
2018-03-01T21:32:34.601Z,29.00
2018-03-01T21:35:02.026Z,29.30
2018-03-01T21:37:29.189Z,29.10
2018-03-01T21:39:56.436Z,29.10
2018-03-01T21:42:29.418Z,29.10
2018-03-01T21:44:57.561Z,29.00
2018-03-01T21:47:24.847Z,29.20
2018-03-01T21:49:52.088Z,29.00
2018-03-01T21:52:19.254Z,28.90
2018-03-01T21:54:46.500Z,28.90
2018-03-01T21:57:14.103Z,29.00
2018-03-01T21:59:41.315Z,28.90
2018-03-01T22:02:09.299Z,28.90
2018-03-01T22:04:37.433Z,28.80
2018-03-01T22:07:04.639Z,29.00
2018-03-01T22:09:32.609Z,28.90
2018-03-01T22:11:59.829Z,29.10
2018-03-01T22:14:27.038Z,28.90
2018-03-01T22:16:54.346Z,28.90
2018-03-01T22:19:21.598Z,28.90
2018-03-01T22:21:48.852Z,28.80
2018-03-01T22:24:16.898Z,29.10
2018-03-01T22:26:44.106Z,29.30
2018-03-01T22:29:11.270Z,29.00
2018-03-01T22:31:39.315Z,28.80
2018-03-01T22:34:06.482Z,28.60
2018-03-01T22:36:34.108Z,28.50
2018-03-01T22:39:01.270Z,28.40
2018-03-01T22:41:28.512Z,28.60
2018-03-01T22:43:55.713Z,28.60
2018-03-01T22:46:23.657Z,29.00
2018-03-01T22:48:50.913Z,28.90
2018-03-01T22:51:18.145Z,28.90
2018-03-01T22:53:45.367Z,29.30
2018-03-01T22:56:13.435Z,29.20
2018-03-01T22:58:41.362Z,29.20
2018-03-01T23:01:08.543Z,29.20
2018-03-01T23:03:36.482Z,29.10
2018-03-01T23:06:03.645Z,29.00
2018-03-01T23:08:30.810Z,29.20
2018-03-01T23:10:58.272Z,29.10
2018-03-01T23:13:26.250Z,29.00
2018-03-01T23:15:54.177Z,29.20
2018-03-01T23:18:21.344Z,29.20
2018-03-01T23:20:48.570Z,29.20
2018-03-01T23:23:15.734Z,29.10
2018-03-01T23:25:42.932Z,29.10
2018-03-01T23:28:11.791Z,29.10
2018-03-01T23:30:40.041Z,29.10
2018-03-01T23:33:07.211Z,28.80
2018-03-01T23:35:34.374Z,28.80
2018-03-01T23:38:02.304Z,28.90
2018-03-01T23:40:30.376Z,28.90
2018-03-01T23:42:57.538Z,28.80
2018-03-01T23:45:24.705Z,28.80
2018-03-01T23:47:51.870Z,29.00
2018-03-01T23:50:19.030Z,29.20
2018-03-01T23:52:47.051Z,28.90
2018-03-01T23:55:14.219Z,29.00
2018-03-01T23:57:41.430Z,29.10
